createdAt,value
2017-10-17T00:01:43.702Z,101757.62
2017-10-17T00:04:13.050Z,101761.66
2017-10-17T00:06:41.735Z,101753.44
2017-10-17T00:09:10.203Z,101760.56
2017-10-17T00:11:39.122Z,101754.12
2017-10-17T00:14:08.019Z,101751.95
2017-10-17T00:16:36.704Z,101756.66
2017-10-17T00:19:05.531Z,101757.05
2017-10-17T00:21:34.364Z,101749.67
2017-10-17T00:24:02.923Z,101752.37
2017-10-17T00:26:31.569Z,101752.53
2017-10-17T00:29:00.313Z,101751.66
2017-10-17T00:31:29.243Z,101752.13
2017-10-17T00:33:58.479Z,101747.15
2017-10-17T00:36:27.307Z,101747.31
2017-10-17T00:38:56.011Z,101753.77
2017-10-17T00:41:24.886Z,101751.91
2017-10-17T00:43:53.627Z,101747.72
2017-10-17T00:46:22.531Z,101738.28
2017-10-17T00:48:51.311Z,101740.00
2017-10-17T00:51:20.095Z,101737.30
2017-10-17T00:53:49.026Z,101747.94
2017-10-17T00:56:18.075Z,101742.72
2017-10-17T00:58:46.651Z,101742.06
2017-10-17T01:01:15.610Z,101741.95
2017-10-17T01:03:44.280Z,101742.05
2017-10-17T01:06:13.082Z,101738.61
2017-10-17T01:08:41.949Z,101739.37
2017-10-17T01:11:11.030Z,101735.92
2017-10-17T01:13:39.758Z,101733.14
2017-10-17T01:16:09.114Z,101732.64
2017-10-17T01:18:37.865Z,101725.50
2017-10-17T01:21:06.867Z,101730.52
2017-10-17T01:23:35.699Z,101727.88
2017-10-17T01:26:04.630Z,101719.19
2017-10-17T01:28:33.509Z,101726.26
2017-10-17T01:31:02.379Z,101723.85
2017-10-17T01:33:31.083Z,101726.64
2017-10-17T01:36:00.362Z,101719.45
2017-10-17T01:38:29.022Z,101713.80
2017-10-17T01:40:57.770Z,101718.39
2017-10-17T01:43:26.431Z,101718.23
2017-10-17T01:45:55.235Z,101712.16
2017-10-17T01:48:24.421Z,101712.98
2017-10-17T01:50:53.319Z,101711.70
2017-10-17T01:53:22.046Z,101708.64
2017-10-17T01:55:50.910Z,101709.38
2017-10-17T01:58:19.613Z,101706.18
2017-10-17T02:00:48.694Z,101712.11
2017-10-17T02:03:17.493Z,101711.18
2017-10-17T02:05:46.254Z,101704.23
2017-10-17T02:08:15.274Z,101698.40
2017-10-17T02:10:48.014Z,101699.22
2017-10-17T02:13:16.495Z,101697.77
2017-10-17T02:15:45.130Z,101695.95
2017-10-17T02:18:14.014Z,101698.75
2017-10-17T02:20:42.884Z,101700.13
2017-10-17T02:23:11.758Z,101712.02
2017-10-17T02:25:40.687Z,101712.43
2017-10-17T02:28:09.311Z,101711.20
2017-10-17T02:30:38.583Z,101713.80
2017-10-17T02:33:07.420Z,101711.28
2017-10-17T02:35:36.433Z,101719.96
2017-10-17T02:38:05.532Z,101713.41
2017-10-17T02:40:34.603Z,101707.59
2017-10-17T02:43:04.746Z,101710.63
2017-10-17T02:45:33.438Z,101718.41
2017-10-17T02:48:03.295Z,101718.16
2017-10-17T02:50:32.093Z,101724.14
2017-10-17T02:53:02.653Z,101724.80
2017-10-17T02:55:31.751Z,101722.91
2017-10-17T02:58:01.359Z,101730.86
2017-10-17T03:00:29.946Z,101723.59
2017-10-17T03:02:58.570Z,101719.48
2017-10-17T03:05:27.344Z,101725.22
2017-10-17T03:07:56.719Z,101719.73
2017-10-17T03:10:25.302Z,101714.90
2017-10-17T03:12:58.068Z,101714.87
2017-10-17T03:15:26.643Z,101715.39
2017-10-17T03:17:59.479Z,101721.78
2017-10-17T03:20:28.246Z,101714.16
2017-10-17T03:23:00.753Z,101717.75
2017-10-17T03:25:29.504Z,101714.87
2017-10-17T03:27:58.292Z,101713.68
2017-10-17T03:30:27.067Z,101712.61
2017-10-17T03:33:04.635Z,101712.52
2017-10-17T03:35:33.423Z,101710.08
2017-10-17T03:38:05.119Z,101706.80
2017-10-17T03:40:33.798Z,101711.06
2017-10-17T03:43:04.902Z,101712.20
2017-10-17T03:45:33.848Z,101719.65
2017-10-17T03:48:02.637Z,101705.47
2017-10-17T03:50:31.651Z,101706.88
2017-10-17T03:53:02.960Z,101707.70
2017-10-17T03:55:31.586Z,101709.09
2017-10-17T03:58:01.543Z,101711.63
2017-10-17T04:06:21.679Z,101700.48
2017-10-17T04:08:50.059Z,101703.34
2017-10-17T04:11:18.773Z,101705.41
2017-10-17T04:13:47.129Z,101701.95
2017-10-17T04:16:15.593Z,101703.70
2017-10-17T04:18:43.983Z,101698.92
2017-10-17T04:21:12.520Z,101698.19
2017-10-17T04:23:40.934Z,101697.45
2017-10-17T04:26:09.421Z,101699.17
2017-10-17T04:28:37.794Z,101704.42
2017-10-17T04:31:06.196Z,101701.24
2017-10-17T04:33:34.680Z,101709.48
2017-10-17T04:36:03.068Z,101702.12
2017-10-17T04:38:31.384Z,101698.19
2017-10-17T04:40:59.780Z,101698.37
2017-10-17T04:43:39.897Z,101700.02
2017-10-17T04:46:08.360Z,101699.53
2017-10-17T04:48:37.764Z,101698.92
2017-10-17T04:51:06.295Z,101698.28
2017-10-17T04:53:35.272Z,101696.06
2017-10-17T04:56:03.666Z,101695.95
2017-10-17T04:58:32.123Z,101698.28
2017-10-17T05:01:00.512Z,101695.24
2017-10-17T05:03:29.235Z,101699.17
2017-10-17T05:05:57.746Z,101695.81
2017-10-17T05:08:26.110Z,101693.77
2017-10-17T05:10:54.516Z,101697.36
2017-10-17T05:13:23.381Z,101693.08
2017-10-17T05:15:52.085Z,101690.79
2017-10-17T05:18:20.719Z,101696.00
2017-10-17T05:20:49.191Z,101697.31
2017-10-17T05:23:17.555Z,101685.11
2017-10-17T05:25:46.832Z,101686.67
2017-10-17T05:28:16.907Z,101690.42
2017-10-17T05:30:45.297Z,101689.51
2017-10-17T05:33:13.935Z,101694.67
2017-10-17T05:35:42.352Z,101694.27
2017-10-17T05:38:10.706Z,101695.33
2017-10-17T05:40:39.265Z,101689.92
2017-10-17T05:43:07.848Z,101684.77
2017-10-17T05:45:36.303Z,101687.80
2017-10-17T05:48:04.700Z,101686.95
2017-10-17T05:50:33.232Z,101689.82
2017-10-17T05:53:01.555Z,101694.16
2017-10-17T05:55:29.936Z,101689.49
2017-10-17T05:57:58.382Z,101694.82
2017-10-17T06:00:27.352Z,101701.37
2017-10-17T06:02:55.638Z,101704.89
2017-10-17T06:05:23.943Z,101699.48
2017-10-17T06:07:52.309Z,101705.63
2017-10-17T06:10:20.806Z,101700.30
2017-10-17T06:12:49.075Z,101706.70
2017-10-17T06:15:17.442Z,101704.73
2017-10-17T06:17:45.868Z,101710.55
2017-10-17T06:20:14.512Z,101707.27
2017-10-17T06:22:43.048Z,101702.62
2017-10-17T06:25:11.488Z,101708.83
2017-10-17T06:27:39.780Z,101713.66
2017-10-17T06:30:08.245Z,101714.64
2017-10-17T06:32:36.772Z,101727.59
2017-10-17T06:35:05.317Z,101721.28
2017-10-17T06:37:33.675Z,101728.83
2017-10-17T06:40:03.390Z,101727.68
2017-10-17T06:42:32.377Z,101736.03
2017-10-17T06:45:01.813Z,101734.97
2017-10-17T06:47:30.361Z,101730.62
2017-10-17T06:49:58.757Z,101741.69
2017-10-17T06:52:30.316Z,101737.75
2017-10-17T06:55:00.774Z,101740.54
2017-10-17T06:57:29.903Z,101743.33
2017-10-17T06:59:58.386Z,101740.22
2017-10-17T07:02:26.982Z,101740.38
2017-10-17T07:04:55.650Z,101729.39
2017-10-17T07:07:24.101Z,101731.86
2017-10-17T07:09:53.935Z,101726.70
2017-10-17T07:12:22.288Z,101735.05
2017-10-17T07:14:51.296Z,101732.84
2017-10-17T07:17:19.813Z,101734.70
2017-10-17T07:19:48.190Z,101735.59
2017-10-17T07:22:16.547Z,101744.70
2017-10-17T07:24:44.888Z,101740.28
2017-10-17T07:27:13.416Z,101749.69
2017-10-17T07:29:41.915Z,101742.70
2017-10-17T07:32:10.302Z,101743.98
2017-10-17T07:34:38.759Z,101757.40
2017-10-17T07:37:07.235Z,101747.67
2017-10-17T07:39:36.221Z,101744.05
2017-10-17T07:42:04.654Z,101756.53
2017-10-17T07:44:33.446Z,101748.72
2017-10-17T07:47:01.876Z,101756.80
2017-10-17T07:49:30.432Z,101755.94
2017-10-17T07:51:58.806Z,101754.78
2017-10-17T07:54:27.394Z,101744.39
2017-10-17T07:56:55.707Z,101757.69
2017-10-17T07:59:24.199Z,101757.70
2017-10-17T08:01:52.704Z,101762.67
2017-10-17T08:04:20.985Z,101761.83
2017-10-17T08:06:49.739Z,101758.48
2017-10-17T08:09:18.027Z,101755.50
2017-10-17T08:11:46.344Z,101754.53
2017-10-17T08:14:14.723Z,101758.84
2017-10-17T08:16:43.216Z,101764.47
2017-10-17T08:19:12.275Z,101767.93
2017-10-17T08:21:40.588Z,101758.44
2017-10-17T08:24:09.055Z,101755.13
2017-10-17T08:26:37.414Z,101756.19
2017-10-17T08:29:05.725Z,101757.14
2017-10-17T08:31:34.040Z,101756.03
2017-10-17T08:34:02.347Z,101755.55
2017-10-17T08:36:30.720Z,101756.53
2017-10-17T08:38:59.027Z,101756.31
2017-10-17T08:41:27.410Z,101758.11
2017-10-17T08:43:55.728Z,101756.55
2017-10-17T08:46:24.523Z,101758.88
2017-10-17T08:48:52.855Z,101757.17
2017-10-17T08:51:21.154Z,101757.50
2017-10-17T08:53:49.601Z,101750.95
2017-10-17T08:56:17.907Z,101755.01
2017-10-17T08:58:46.360Z,101757.64
2017-10-17T09:01:14.708Z,101752.38
2017-10-17T09:03:42.995Z,101755.46
2017-10-17T09:06:11.408Z,101753.34
2017-10-17T09:08:40.331Z,101754.11
2017-10-17T09:11:08.626Z,101750.83
2017-10-17T09:13:37.153Z,101745.74
2017-10-17T09:16:05.551Z,101752.09
2017-10-17T09:18:33.848Z,101749.36
2017-10-17T09:21:02.906Z,101750.34
2017-10-17T09:23:31.698Z,101742.83
2017-10-17T09:26:00.318Z,101748.53
2017-10-17T09:28:28.674Z,101752.14
2017-10-17T09:30:57.420Z,101749.52
2017-10-17T09:33:26.160Z,101746.81
2017-10-17T09:35:54.489Z,101741.67
2017-10-17T09:38:22.808Z,101739.05
2017-10-17T09:40:51.283Z,101745.33
2017-10-17T09:43:19.832Z,101745.49
2017-10-17T09:45:48.844Z,101739.26
2017-10-17T09:48:17.100Z,101739.42
2017-10-17T09:50:45.573Z,101738.19
2017-10-17T09:53:13.875Z,101738.11
2017-10-17T09:55:42.364Z,101743.69
2017-10-17T09:58:10.638Z,101741.81
2017-10-17T10:00:39.141Z,101744.44
2017-10-17T10:03:08.064Z,101741.48
2017-10-17T10:05:36.480Z,101741.52
2017-10-17T10:08:04.777Z,101735.28
2017-10-17T10:10:35.024Z,101745.37
2017-10-17T10:13:03.328Z,101744.97
2017-10-17T10:15:31.647Z,101735.03
2017-10-17T10:18:00.023Z,101730.97
2017-10-17T10:20:29.637Z,101728.56
2017-10-17T10:22:58.096Z,101729.33
2017-10-17T10:25:27.733Z,101718.70
2017-10-17T10:27:56.017Z,101720.22
2017-10-17T10:30:25.313Z,101715.91
2017-10-17T10:32:54.016Z,101713.41
2017-10-17T10:35:23.240Z,101716.08
2017-10-17T10:37:51.928Z,101710.05
2017-10-17T10:40:20.393Z,101709.27
2017-10-17T10:45:16.968Z,101706.23
2017-10-17T10:47:46.860Z,101708.97
2017-10-17T10:50:16.047Z,101706.02
2017-10-17T10:52:44.469Z,101701.92
2017-10-17T10:55:13.291Z,101695.52
2017-10-17T10:57:41.629Z,101692.38
2017-10-17T11:00:10.963Z,101690.55
2017-10-17T11:02:39.289Z,101683.08
2017-10-17T11:05:07.859Z,101680.93
2017-10-17T11:07:36.164Z,101680.84
2017-10-17T11:10:04.614Z,101673.07
2017-10-17T11:12:33.008Z,101678.55
2017-10-17T11:15:01.273Z,101675.06
2017-10-17T11:17:30.009Z,101668.22
2017-10-17T11:19:58.315Z,101671.48
2017-10-17T11:22:26.765Z,101666.36
2017-10-17T11:24:55.228Z,101667.87
2017-10-17T11:27:25.207Z,101661.47
2017-10-17T11:29:53.612Z,101668.88
2017-10-17T11:32:22.493Z,101662.88
2017-10-17T11:34:50.831Z,101658.45
2017-10-17T11:37:19.626Z,101652.39
2017-10-17T11:39:47.963Z,101652.69
2017-10-17T11:43:56.510Z,101647.47
2017-10-17T11:46:24.962Z,101639.58
2017-10-17T11:48:53.418Z,101638.50
2017-10-17T11:51:22.100Z,101633.45
2017-10-17T11:53:52.069Z,101627.27
2017-10-17T11:56:21.430Z,101620.85
2017-10-17T11:58:50.400Z,101625.91
2017-10-17T12:01:19.423Z,101622.75
2017-10-17T12:03:48.403Z,101622.34
2017-10-17T12:06:16.949Z,101618.28
2017-10-17T12:08:45.636Z,101615.22
2017-10-17T12:11:15.369Z,101613.75
2017-10-17T12:13:44.255Z,101614.76
2017-10-17T12:16:12.907Z,101610.19
2017-10-17T12:18:41.333Z,101604.59
2017-10-17T12:21:13.259Z,101606.31
2017-10-17T12:23:45.443Z,101603.37
2017-10-17T12:26:15.691Z,101598.93
2017-10-17T12:28:44.541Z,101597.92
2017-10-17T12:31:13.904Z,101589.88
2017-10-17T12:33:42.353Z,101586.63
2017-10-17T12:36:10.900Z,101591.64
2017-10-17T12:38:39.344Z,101586.11
2017-10-17T12:41:08.920Z,101585.19
2017-10-17T12:43:37.191Z,101582.23
2017-10-17T12:46:05.559Z,101585.43
2017-10-17T12:48:33.969Z,101578.63
2017-10-17T12:51:02.368Z,101572.95
2017-10-17T12:53:31.202Z,101570.34
2017-10-17T12:55:59.520Z,101564.09
2017-10-17T12:58:27.800Z,101566.64
2017-10-17T13:00:56.107Z,101557.74
2017-10-17T13:03:25.356Z,101560.13
2017-10-17T13:05:53.667Z,101554.32
2017-10-17T13:08:22.101Z,101552.76
2017-10-17T13:10:50.558Z,101552.85
2017-10-17T13:13:18.995Z,101550.94
2017-10-17T13:15:47.399Z,101550.12
2017-10-17T13:18:16.187Z,101548.65
2017-10-17T13:20:44.554Z,101543.02
2017-10-17T13:23:12.840Z,101543.09
2017-10-17T13:25:41.148Z,101542.50
2017-10-17T13:28:09.436Z,101540.52
2017-10-17T13:30:37.797Z,101542.41
2017-10-17T13:33:06.165Z,101541.45
2017-10-17T13:35:34.651Z,101535.58
2017-10-17T13:38:03.279Z,101536.71
2017-10-17T13:40:32.752Z,101535.20
2017-10-17T13:43:01.275Z,101531.30
2017-10-17T13:45:29.656Z,101526.60
2017-10-17T13:47:58.211Z,101521.05
2017-10-17T13:50:26.587Z,101522.55
2017-10-17T13:52:54.959Z,101522.65
2017-10-17T13:55:23.361Z,101521.70
2017-10-17T13:57:52.547Z,101517.98
2017-10-17T14:00:21.727Z,101512.45
2017-10-17T14:05:27.666Z,101513.91
2017-10-17T14:07:55.994Z,101515.70
2017-10-17T14:10:26.187Z,101511.17
2017-10-17T14:12:54.868Z,101509.91
2017-10-17T14:15:23.744Z,101511.98
2017-10-17T14:17:52.470Z,101514.67
2017-10-17T14:20:21.040Z,101506.47
2017-10-17T14:22:49.610Z,101506.01
2017-10-17T14:25:17.975Z,101508.55
2017-10-17T14:27:46.346Z,101498.60
2017-10-17T14:30:16.896Z,101502.28
2017-10-17T14:32:45.273Z,101500.41
2017-10-17T14:35:14.717Z,101500.17
2017-10-17T14:37:43.179Z,101493.66
2017-10-17T14:40:12.336Z,101498.89
2017-10-17T14:42:42.382Z,101493.55
2017-10-17T14:45:14.880Z,101490.98
2017-10-17T14:47:43.255Z,101492.47
2017-10-17T14:50:12.237Z,101491.66
2017-10-17T14:52:41.272Z,101485.21
2017-10-17T14:55:10.056Z,101487.87
2017-10-17T14:57:38.365Z,101480.38
2017-10-17T15:00:08.730Z,101484.22
2017-10-17T15:02:37.419Z,101478.22
2017-10-17T15:05:06.370Z,101479.38
2017-10-17T15:07:36.111Z,101469.63
2017-10-17T15:10:04.782Z,101471.37
2017-10-17T15:12:33.203Z,101470.51
2017-10-17T15:15:02.024Z,101464.68
2017-10-17T15:17:30.765Z,101461.32
2017-10-17T15:19:59.044Z,101455.98
2017-10-17T15:22:27.409Z,101461.01
2017-10-17T15:24:55.865Z,101462.23
2017-10-17T15:28:24.476Z,101459.20
2017-10-17T15:30:52.916Z,101458.53
2017-10-17T15:33:21.235Z,101460.82
2017-10-17T15:35:50.542Z,101457.22
2017-10-17T15:38:19.495Z,101459.59
2017-10-17T15:40:47.898Z,101461.21
2017-10-17T15:43:16.336Z,101457.23
2017-10-17T15:45:44.651Z,101458.73
2017-10-17T15:48:15.068Z,101456.52
2017-10-17T15:50:44.598Z,101457.41
2017-10-17T15:53:13.079Z,101452.53
2017-10-17T15:55:41.537Z,101455.13
2017-10-17T15:58:10.207Z,101452.67
2017-10-17T16:00:38.723Z,101451.04
2017-10-17T16:03:07.254Z,101445.44
2017-10-17T16:05:35.664Z,101453.72
2017-10-17T16:08:04.564Z,101456.09
2017-10-17T16:10:33.616Z,101453.72
2017-10-17T16:13:01.907Z,101457.47
2017-10-17T16:15:30.333Z,101447.30
2017-10-17T16:17:58.631Z,101449.18
2017-10-17T16:20:27.251Z,101446.14
2017-10-17T16:22:55.648Z,101448.00
2017-10-17T16:25:26.387Z,101452.35
2017-10-17T16:27:54.868Z,101445.92
2017-10-17T16:30:24.676Z,101447.84
2017-10-17T16:32:53.989Z,101445.57
2017-10-17T16:35:23.061Z,101449.99
2017-10-17T16:37:52.255Z,101448.28
2017-10-17T16:40:23.125Z,101446.14
2017-10-17T16:42:51.763Z,101449.97
2017-10-17T16:45:20.191Z,101448.41
2017-10-17T16:47:49.565Z,101452.06
2017-10-17T16:50:17.944Z,101450.86
2017-10-17T16:52:47.080Z,101444.86
2017-10-17T16:55:15.517Z,101445.94
2017-10-17T16:57:43.835Z,101449.16
2017-10-17T17:00:12.163Z,101453.91
2017-10-17T17:02:40.616Z,101451.49
2017-10-17T17:05:09.310Z,101451.41
2017-10-17T17:07:37.653Z,101449.78
2017-10-17T17:10:05.997Z,101455.94
2017-10-17T17:12:34.392Z,101457.85
2017-10-17T17:15:03.532Z,101462.45
2017-10-17T17:17:31.881Z,101461.34
2017-10-17T17:20:00.438Z,101463.20
2017-10-17T17:22:28.976Z,101467.55
2017-10-17T17:24:57.425Z,101460.81
2017-10-17T17:27:25.744Z,101459.23
2017-10-17T17:29:54.400Z,101461.16
2017-10-17T17:32:23.718Z,101461.27
2017-10-17T17:34:52.060Z,101455.48
2017-10-17T17:37:20.404Z,101459.34
2017-10-17T17:39:49.764Z,101460.16
2017-10-17T17:42:21.816Z,101455.58
2017-10-17T17:44:50.720Z,101451.48
2017-10-17T17:47:19.432Z,101459.23
2017-10-17T17:49:47.875Z,101449.16
2017-10-17T17:52:17.239Z,101451.37
2017-10-17T17:54:45.618Z,101439.20
2017-10-17T17:57:13.967Z,101449.11
2017-10-17T17:59:42.588Z,101449.03
2017-10-17T18:02:11.556Z,101450.09
2017-10-17T18:04:39.850Z,101448.70
2017-10-17T18:07:08.232Z,101447.72
2017-10-17T18:09:37.190Z,101449.20
2017-10-17T18:12:06.976Z,101450.19
2017-10-17T18:14:35.365Z,101447.56
2017-10-17T18:17:04.423Z,101447.56
2017-10-17T18:19:33.088Z,101443.34
2017-10-17T18:22:01.693Z,101440.55
2017-10-17T18:24:30.418Z,101437.36
2017-10-17T18:26:59.272Z,101434.00
2017-10-17T18:29:29.060Z,101434.21
2017-10-17T18:31:58.665Z,101429.16
2017-10-17T18:34:27.802Z,101434.73
2017-10-17T18:36:56.592Z,101432.86
2017-10-17T18:39:25.986Z,101428.27
2017-10-17T18:41:55.187Z,101426.06
2017-10-17T18:44:23.702Z,101424.22
2017-10-17T18:46:52.215Z,101424.45
2017-10-17T18:49:22.783Z,101427.58
2017-10-17T18:51:51.218Z,101428.97
2017-10-17T18:54:21.324Z,101429.64
2017-10-17T18:56:52.946Z,101430.94
2017-10-17T18:59:25.737Z,101427.05
2017-10-17T19:01:54.875Z,101426.11
2017-10-17T19:04:23.272Z,101426.16
2017-10-17T19:06:51.738Z,101430.88
2017-10-17T19:09:20.188Z,101426.91
2017-10-17T19:11:48.511Z,101422.51
2017-10-17T19:14:19.469Z,101414.64
2017-10-17T19:16:49.049Z,101411.25
2017-10-17T19:19:18.016Z,101406.56
2017-10-17T19:21:47.177Z,101406.19
2017-10-17T19:24:16.680Z,101407.48
2017-10-17T19:26:46.457Z,101405.19
2017-10-17T19:29:14.764Z,101401.34
2017-10-17T19:31:43.108Z,101409.55
2017-10-17T19:34:13.236Z,101405.72
2017-10-17T19:36:43.297Z,101407.89
2017-10-17T19:39:11.661Z,101407.88
2017-10-17T19:41:40.522Z,101406.87
2017-10-17T19:44:09.363Z,101407.06
2017-10-17T19:46:37.875Z,101407.84
2017-10-17T19:49:06.892Z,101409.13
2017-10-17T19:51:36.259Z,101410.88
2017-10-17T19:54:04.621Z,101411.02
2017-10-17T19:56:33.564Z,101416.09
2017-10-17T19:59:01.901Z,101415.75
2017-10-17T20:01:31.831Z,101417.14
2017-10-17T20:04:00.360Z,101416.63
2017-10-17T20:06:28.680Z,101416.37
2017-10-17T20:08:57.727Z,101418.66
2017-10-17T20:11:26.039Z,101417.38
2017-10-17T20:13:55.254Z,101419.93
2017-10-17T20:16:23.824Z,101423.30
2017-10-17T20:18:52.297Z,101419.11
2017-10-17T20:21:20.629Z,101422.13
2017-10-17T20:23:58.663Z,101420.33
2017-10-17T20:26:27.832Z,101422.36
2017-10-17T20:28:56.232Z,101420.45
2017-10-17T20:31:26.251Z,101424.16
2017-10-17T20:33:55.963Z,101425.46
2017-10-17T20:36:25.092Z,101421.44
2017-10-17T20:38:54.790Z,101424.91
2017-10-17T20:41:24.292Z,101427.59
2017-10-17T20:43:53.180Z,101423.51
2017-10-17T20:46:22.122Z,101422.45
2017-10-17T20:48:51.498Z,101424.59
2017-10-17T20:51:20.017Z,101424.42
2017-10-17T20:53:48.689Z,101420.64
2017-10-17T20:56:17.084Z,101411.62
2017-10-17T20:58:45.780Z,101414.75
2017-10-17T21:01:14.199Z,101414.00
2017-10-17T21:03:42.770Z,101413.14
2017-10-17T21:06:11.278Z,101421.67
2017-10-17T21:08:39.583Z,101414.63
2017-10-17T21:11:08.675Z,101417.18
2017-10-17T21:13:37.083Z,101420.03
2017-10-17T21:16:05.562Z,101419.77
2017-10-17T21:18:34.091Z,101421.18
2017-10-17T21:21:03.103Z,101418.46
2017-10-17T21:23:32.563Z,101424.95
2017-10-17T21:26:00.870Z,101425.91
2017-10-17T21:28:29.204Z,101422.53
2017-10-17T21:30:58.084Z,101418.28
2017-10-17T21:33:26.384Z,101418.41
2017-10-17T21:35:54.794Z,101420.49
2017-10-17T21:38:23.205Z,101417.02
2017-10-17T21:40:51.541Z,101419.60
2017-10-17T21:43:20.071Z,101417.69
2017-10-17T21:45:48.585Z,101409.89
2017-10-17T21:48:17.168Z,101402.06
2017-10-17T21:50:47.871Z,101405.72
2017-10-17T21:53:17.867Z,101405.30
2017-10-17T21:55:46.247Z,101402.06
2017-10-17T21:58:15.520Z,101403.80
2017-10-17T22:00:52.792Z,101394.28
2017-10-17T22:03:21.560Z,101400.08
2017-10-17T22:05:49.943Z,101402.55
2017-10-17T22:08:18.399Z,101399.48
2017-10-17T22:10:47.243Z,101397.27
2017-10-17T22:13:16.471Z,101395.87
2017-10-17T22:15:44.763Z,101398.83
2017-10-17T22:18:13.096Z,101398.92
2017-10-17T22:20:41.658Z,101399.30
2017-10-17T22:23:10.118Z,101403.81
2017-10-17T22:25:38.805Z,101406.11
2017-10-17T22:28:07.100Z,101402.14
2017-10-17T22:30:35.576Z,101398.70
2017-10-17T22:33:04.224Z,101402.87
2017-10-17T22:35:33.574Z,101396.66
2017-10-17T22:38:01.923Z,101397.97
2017-10-17T22:40:30.341Z,101389.11
2017-10-17T22:42:58.771Z,101387.77
2017-10-17T22:45:27.120Z,101391.53
2017-10-17T22:47:55.923Z,101391.38
2017-10-17T22:50:24.775Z,101383.42
2017-10-17T22:52:53.048Z,101384.33
2017-10-17T22:55:21.989Z,101388.23
2017-10-17T22:57:50.259Z,101387.58
2017-10-17T23:00:19.309Z,101396.67
2017-10-17T23:02:47.633Z,101401.34
2017-10-17T23:05:16.005Z,101395.45
2017-10-17T23:07:44.683Z,101387.67
2017-10-17T23:10:14.016Z,101398.98
2017-10-17T23:12:42.390Z,101390.05
2017-10-17T23:15:10.741Z,101392.42
2017-10-17T23:19:50.180Z,101391.23
2017-10-17T23:22:27.631Z,101390.34
2017-10-17T23:24:55.915Z,101388.25
2017-10-17T23:27:24.250Z,101384.43
2017-10-17T23:29:52.600Z,101386.16
2017-10-17T23:32:21.049Z,101379.00
2017-10-17T23:34:49.479Z,101386.45
2017-10-17T23:37:17.788Z,101385.22
2017-10-17T23:39:46.059Z,101378.02
2017-10-17T23:42:14.521Z,101381.95
2017-10-17T23:44:42.991Z,101379.09
2017-10-17T23:47:11.332Z,101382.53
2017-10-17T23:49:39.657Z,101368.43
2017-10-17T23:52:08.303Z,101372.73
2017-10-17T23:54:36.782Z,101370.56
2017-10-17T23:57:05.097Z,101363.31
2017-10-17T23:59:33.935Z,101360.53
